sensor_id;sensor_type;location;lat;lon;timestamp;pressure;altitude;pressure_sealevel;temperature;humidity
24858;BME280;12935;50.782;6.074;2023-02-18T00:01:19;100271.00;;;9.96;100.00
24858;BME280;12935;50.782;6.074;2023-02-18T00:03:45;100267.41;;;9.92;100.00
24858;BME280;12935;50.782;6.074;2023-02-18T00:08:42;100257.69;;;9.91;100.00
24858;BME280;12935;50.782;6.074;2023-02-18T00:11:08;100252.97;;;9.88;100.00
24858;BME280;12935;50.782;6.074;2023-02-18T00:13:34;100258.84;;;9.90;100.00
24858;BME280;12935;50.782;6.074;2023-02-18T00:16:07;100254.16;;;9.90;100.00
24858;BME280;12935;50.782;6.074;2023-02-18T00:18:33;100248.72;;;9.90;100.00
24858;BME280;12935;50.782;6.074;2023-02-18T00:20:58;100253.03;;;9.95;100.00
24858;BME280;12935;50.782;6.074;2023-02-18T00:23:24;100259.63;;;9.90;100.00
24858;BME280;12935;50.782;6.074;2023-02-18T00:25:58;100239.38;;;9.95;100.00
24858;BME280;12935;50.782;6.074;2023-02-18T00:28:23;100239.38;;;9.95;100.00
24858;BME280;12935;50.782;6.074;2023-02-18T00:30:48;100238.19;;;9.92;100.00
24858;BME280;12935;50.782;6.074;2023-02-18T00:33:13;100241.31;;;9.94;100.00
24858;BME280;12935;50.782;6.074;2023-02-18T00:35:39;100224.31;;;10.04;100.00
24858;BME280;12935;50.782;6.074;2023-02-18T00:38:04;100226.31;;;10.11;100.00
24858;BME280;12935;50.782;6.074;2023-02-18T00:40:29;100218.81;;;10.01;100.00
24858;BME280;12935;50.782;6.074;2023-02-18T00:42:54;100221.94;;;10.03;100.00
24858;BME280;12935;50.782;6.074;2023-02-18T00:45:20;100210.28;;;10.06;100.00
24858;BME280;12935;50.782;6.074;2023-02-18T00:47:45;100210.59;;;10.01;100.00
24858;BME280;12935;50.782;6.074;2023-02-18T00:50:10;100210.19;;;9.99;100.00
24858;BME280;12935;50.782;6.074;2023-02-18T00:52:36;100214.44;;;9.96;100.00
24858;BME280;12935;50.782;6.074;2023-02-18T00:55:01;100207.34;;;9.88;100.00
24858;BME280;12935;50.782;6.074;2023-02-18T00:57:26;100201.16;;;9.91;100.00
24858;BME280;12935;50.782;6.074;2023-02-18T00:59:52;100184.03;;;9.98;100.00
24858;BME280;12935;50.782;6.074;2023-02-18T01:02:17;100177.13;;;10.07;100.00
24858;BME280;12935;50.782;6.074;2023-02-18T01:04:42;100177.09;;;10.04;100.00
24858;BME280;12935;50.782;6.074;2023-02-18T01:07:08;100171.59;;;10.00;100.00
24858;BME280;12935;50.782;6.074;2023-02-18T01:09:35;100174.31;;;10.00;100.00
24858;BME280;12935;50.782;6.074;2023-02-18T01:12:00;100176.38;;;10.07;100.00
24858;BME280;12935;50.782;6.074;2023-02-18T01:14:25;100174.38;;;10.04;100.00
24858;BME280;12935;50.782;6.074;2023-02-18T01:16:50;100176.75;;;10.05;100.00
24858;BME280;12935;50.782;6.074;2023-02-18T01:19:16;100173.59;;;10.03;100.00
24858;BME280;12935;50.782;6.074;2023-02-18T01:21:41;100174.03;;;10.09;100.00
24858;BME280;12935;50.782;6.074;2023-02-18T01:24:06;100170.91;;;10.07;100.00
24858;BME280;12935;50.782;6.074;2023-02-18T01:26:32;100162.28;;;10.05;100.00
24858;BME280;12935;50.782;6.074;2023-02-18T01:28:57;100158.38;;;10.02;100.00
24858;BME280;12935;50.782;6.074;2023-02-18T01:31:22;100157.47;;;9.95;100.00
24858;BME280;12935;50.782;6.074;2023-02-18T01:33:47;100173.22;;;10.05;100.00
24858;BME280;12935;50.782;6.074;2023-02-18T01:36:13;100168.44;;;9.98;100.00
24858;BME280;12935;50.782;6.074;2023-02-18T01:38:38;100155.59;;;9.99;100.00
24858;BME280;12935;50.782;6.074;2023-02-18T01:41:04;100153.28;;;10.01;100.00
24858;BME280;12935;50.782;6.074;2023-02-18T01:43:29;100147.03;;;10.00;100.00
24858;BME280;12935;50.782;6.074;2023-02-18T01:46:05;100147.53;;;10.13;100.00
24858;BME280;12935;50.782;6.074;2023-02-18T01:48:35;100153.78;;;10.13;100.00
24858;BME280;12935;50.782;6.074;2023-02-18T01:51:09;100148.34;;;10.13;100.00
24858;BME280;12935;50.782;6.074;2023-02-18T01:53:40;100145.31;;;10.18;100.00
24858;BME280;12935;50.782;6.074;2023-02-18T01:56:12;100136.22;;;10.11;100.00
24858;BME280;12935;50.782;6.074;2023-02-18T01:58:38;100131.75;;;9.96;100.00
24858;BME280;12935;50.782;6.074;2023-02-18T02:01:05;100138.47;;;10.02;100.00
24858;BME280;12935;50.782;6.074;2023-02-18T02:03:30;100138.88;;;10.04;100.00
24858;BME280;12935;50.782;6.074;2023-02-18T02:05:55;100136.16;;;10.04;100.00
24858;BME280;12935;50.782;6.074;2023-02-18T02:08:21;100133.78;;;10.02;100.00
24858;BME280;12935;50.782;6.074;2023-02-18T02:11:10;100125.94;;;9.97;100.00
24858;BME280;12935;50.782;6.074;2023-02-18T02:13:58;100123.19;;;9.97;100.00
24858;BME280;12935;50.782;6.074;2023-02-18T02:16:37;100119.69;;;9.97;100.00
24858;BME280;12935;50.782;6.074;2023-02-18T02:19:42;100108.34;;;9.95;100.00
24858;BME280;12935;50.782;6.074;2023-02-18T02:22:21;100112.22;;;9.90;100.00
24858;BME280;12935;50.782;6.074;2023-02-18T02:25:01;100096.59;;;9.87;100.00
24858;BME280;12935;50.782;6.074;2023-02-18T02:28:15;100095.78;;;9.87;100.00
24858;BME280;12935;50.782;6.074;2023-02-18T02:44:19;100093.34;;;9.78;100.00
24858;BME280;12935;50.782;6.074;2023-02-18T02:46:47;100084.78;;;9.79;100.00
24858;BME280;12935;50.782;6.074;2023-02-18T02:52:07;100082.53;;;9.85;100.00
24858;BME280;12935;50.782;6.074;2023-02-18T02:54:34;100074.97;;;9.71;100.00
24858;BME280;12935;50.782;6.074;2023-02-18T02:59:43;100075.81;;;9.79;100.00
24858;BME280;12935;50.782;6.074;2023-02-18T03:02:24;100076.56;;;9.76;100.00
24858;BME280;12935;50.782;6.074;2023-02-18T03:05:07;100058.91;;;9.66;100.00
24858;BME280;12935;50.782;6.074;2023-02-18T03:10:43;100068.41;;;9.79;100.00
24858;BME280;12935;50.782;6.074;2023-02-18T03:13:15;100057.16;;;9.84;100.00
24858;BME280;12935;50.782;6.074;2023-02-18T03:15:49;100058.78;;;9.89;100.00
24858;BME280;12935;50.782;6.074;2023-02-18T03:18:40;100041.94;;;9.83;100.00
24858;BME280;12935;50.782;6.074;2023-02-18T03:21:15;100048.69;;;9.97;100.00
24858;BME280;12935;50.782;6.074;2023-02-18T03:23:55;100047.44;;;9.87;100.00
24858;BME280;12935;50.782;6.074;2023-02-18T03:26:23;100045.31;;;9.70;100.00
24858;BME280;12935;50.782;6.074;2023-02-18T03:28:52;100031.22;;;9.64;100.00
24858;BME280;12935;50.782;6.074;2023-02-18T03:31:21;100037.19;;;9.77;100.00
24858;BME280;12935;50.782;6.074;2023-02-18T03:34:01;100032.19;;;9.82;100.00
24858;BME280;12935;50.782;6.074;2023-02-18T03:36:28;100032.13;;;9.75;100.00
24858;BME280;12935;50.782;6.074;2023-02-18T03:38:59;100039.19;;;9.80;100.00
24858;BME280;12935;50.782;6.074;2023-02-18T03:41:25;100032.31;;;9.56;100.00
24858;BME280;12935;50.782;6.074;2023-02-18T03:43:58;100037.84;;;9.63;100.00
24858;BME280;12935;50.782;6.074;2023-02-18T03:46:26;100032.69;;;9.55;100.00
24858;BME280;12935;50.782;6.074;2023-02-18T03:48:51;100033.94;;;9.64;100.00
24858;BME280;12935;50.782;6.074;2023-02-18T03:51:17;100030.38;;;9.57;100.00
24858;BME280;12935;50.782;6.074;2023-02-18T03:53:43;100043.66;;;9.58;100.00
24858;BME280;12935;50.782;6.074;2023-02-18T03:56:08;100030.38;;;9.60;100.00
24858;BME280;12935;50.782;6.074;2023-02-18T03:58:34;100033.09;;;9.57;100.00
24858;BME280;12935;50.782;6.074;2023-02-18T04:01:00;100041.31;;;9.60;100.00
24858;BME280;12935;50.782;6.074;2023-02-18T04:03:25;100029.91;;;9.51;100.00
24858;BME280;12935;50.782;6.074;2023-02-18T04:05:50;100026.88;;;9.56;100.00
24858;BME280;12935;50.782;6.074;2023-02-18T04:08:16;100008.19;;;9.62;100.00
24858;BME280;12935;50.782;6.074;2023-02-18T04:10:41;100003.88;;;9.57;100.00
24858;BME280;12935;50.782;6.074;2023-02-18T04:13:06;99994.56;;;9.62;100.00
24858;BME280;12935;50.782;6.074;2023-02-18T04:15:31;99989.09;;;9.58;100.00
24858;BME280;12935;50.782;6.074;2023-02-18T04:17:58;99991.44;;;9.60;100.00
24858;BME280;12935;50.782;6.074;2023-02-18T04:20:23;99987.16;;;9.62;100.00
24858;BME280;12935;50.782;6.074;2023-02-18T04:22:49;99998.47;;;9.64;100.00
24858;BME280;12935;50.782;6.074;2023-02-18T04:25:14;99974.66;;;9.61;100.00
24858;BME280;12935;50.782;6.074;2023-02-18T04:27:40;99979.34;;;9.61;100.00
24858;BME280;12935;50.782;6.074;2023-02-18T04:30:06;99973.97;;;9.68;100.00
24858;BME280;12935;50.782;6.074;2023-02-18T04:32:31;99973.56;;;9.66;100.00
24858;BME280;12935;50.782;6.074;2023-02-18T04:34:57;99992.28;;;9.67;100.00
24858;BME280;12935;50.782;6.074;2023-02-18T04:37:22;99991.03;;;9.61;100.00
24858;BME280;12935;50.782;6.074;2023-02-18T04:39:47;99992.28;;;9.67;100.00
24858;BME280;12935;50.782;6.074;2023-02-18T04:42:12;99983.25;;;9.60;100.00
24858;BME280;12935;50.782;6.074;2023-02-18T04:44:38;99985.13;;;9.52;100.00
24858;BME280;12935;50.782;6.074;2023-02-18T04:47:05;99990.25;;;9.57;100.00
24858;BME280;12935;50.782;6.074;2023-02-18T04:49:30;99993.75;;;9.58;100.00
24858;BME280;12935;50.782;6.074;2023-02-18T04:51:55;99991.81;;;9.58;100.00
24858;BME280;12935;50.782;6.074;2023-02-18T04:54:21;99983.91;;;9.49;100.00
24858;BME280;12935;50.782;6.074;2023-02-18T04:56:46;99994.13;;;9.56;100.00
24858;BME280;12935;50.782;6.074;2023-02-18T04:59:11;99979.75;;;9.63;100.00
24858;BME280;12935;50.782;6.074;2023-02-18T05:01:37;99964.53;;;9.58;100.00
24858;BME280;12935;50.782;6.074;2023-02-18T05:04:02;99979.31;;;9.57;100.00
24858;BME280;12935;50.782;6.074;2023-02-18T05:06:27;99978.56;;;9.60;100.00
24858;BME280;12935;50.782;6.074;2023-02-18T05:08:52;99969.53;;;9.53;100.00
24858;BME280;12935;50.782;6.074;2023-02-18T05:11:18;99976.22;;;9.59;100.00
24858;BME280;12935;50.782;6.074;2023-02-18T05:13:43;99969.63;;;9.60;100.00
24858;BME280;12935;50.782;6.074;2023-02-18T05:16:08;99978.69;;;9.71;100.00
24858;BME280;12935;50.782;6.074;2023-02-18T05:18:34;99982.84;;;9.61;100.00
24858;BME280;12935;50.782;6.074;2023-02-18T05:20:59;100000.38;;;9.57;100.00
24858;BME280;12935;50.782;6.074;2023-02-18T05:23:24;99983.59;;;9.55;100.00
24858;BME280;12935;50.782;6.074;2023-02-18T05:25:50;99977.75;;;9.56;100.00
24858;BME280;12935;50.782;6.074;2023-02-18T05:28:15;99985.19;;;9.59;100.00
24858;BME280;12935;50.782;6.074;2023-02-18T05:30:40;99969.91;;;9.51;100.00
24858;BME280;12935;50.782;6.074;2023-02-18T05:33:06;99968.38;;;9.54;100.00
24858;BME280;12935;50.782;6.074;2023-02-18T05:35:31;99973.41;;;9.52;100.00
24858;BME280;12935;50.782;6.074;2023-02-18T05:37:56;99988.63;;;9.53;100.00
24858;BME280;12935;50.782;6.074;2023-02-18T05:40:22;99977.72;;;9.53;100.00
24858;BME280;12935;50.782;6.074;2023-02-18T05:42:47;99981.19;;;9.49;100.00
24858;BME280;12935;50.782;6.074;2023-02-18T05:45:12;99973.78;;;9.50;100.00
24858;BME280;12935;50.782;6.074;2023-02-18T05:47:37;99967.22;;;9.55;100.00
24858;BME280;12935;50.782;6.074;2023-02-18T05:50:03;99962.13;;;9.53;100.00
24858;BME280;12935;50.782;6.074;2023-02-18T05:52:28;99967.22;;;9.55;100.00
24858;BME280;12935;50.782;6.074;2023-02-18T05:54:54;99971.84;;;9.50;100.00
24858;BME280;12935;50.782;6.074;2023-02-18T05:57:19;99962.50;;;9.52;100.00
24858;BME280;12935;50.782;6.074;2023-02-18T05:59:44;99957.88;;;9.56;100.00
24858;BME280;12935;50.782;6.074;2023-02-18T06:02:10;99951.59;;;9.52;100.00
24858;BME280;12935;50.782;6.074;2023-02-18T06:04:35;99949.28;;;9.54;100.00
24858;BME280;12935;50.782;6.074;2023-02-18T06:07:00;99944.66;;;9.61;100.00
24858;BME280;12935;50.782;6.074;2023-02-18T06:09:26;99943.78;;;9.50;100.00
24858;BME280;12935;50.782;6.074;2023-02-18T06:11:51;99935.59;;;9.50;100.00
24858;BME280;12935;50.782;6.074;2023-02-18T06:14:17;99944.66;;;9.58;100.00
24858;BME280;12935;50.782;6.074;2023-02-18T06:16:42;99928.97;;;9.51;100.00
24858;BME280;12935;50.782;6.074;2023-02-18T06:19:08;99926.63;;;9.49;100.00
24858;BME280;12935;50.782;6.074;2023-02-18T06:21:33;99931.72;;;9.51;100.00
24858;BME280;12935;50.782;6.074;2023-02-18T06:23:58;99919.13;;;9.39;100.00
24858;BME280;12935;50.782;6.074;2023-02-18T06:26:24;99924.19;;;9.37;100.00
24858;BME280;12935;50.782;6.074;2023-02-18T06:28:49;99908.53;;;9.31;100.00
24858;BME280;12935;50.782;6.074;2023-02-18T06:31:15;99900.63;;;9.19;100.00
24858;BME280;12935;50.782;6.074;2023-02-18T06:33:40;99897.88;;;9.19;100.00
24858;BME280;12935;50.782;6.074;2023-02-18T06:36:07;99917.03;;;9.22;100.00
24858;BME280;12935;50.782;6.074;2023-02-18T06:38:34;99915.44;;;9.21;100.00
24858;BME280;12935;50.782;6.074;2023-02-18T06:41:00;99915.84;;;9.23;100.00
24858;BME280;12935;50.782;6.074;2023-02-18T06:43:25;99911.16;;;9.20;100.00
24858;BME280;12935;50.782;6.074;2023-02-18T06:45:51;99911.91;;;9.17;100.00
24858;BME280;12935;50.782;6.074;2023-02-18T06:48:16;99899.00;;;9.10;100.00
24858;BME280;12935;50.782;6.074;2023-02-18T06:50:42;99903.34;;;9.19;100.00
24858;BME280;12935;50.782;6.074;2023-02-18T06:53:08;99890.91;;;9.21;100.00
24858;BME280;12935;50.782;6.074;2023-02-18T06:55:33;99892.53;;;9.26;100.00
24858;BME280;12935;50.782;6.074;2023-02-18T06:57:58;99880.03;;;9.25;100.00
24858;BME280;12935;50.782;6.074;2023-02-18T07:00:24;99882.81;;;9.28;100.00
24858;BME280;12935;50.782;6.074;2023-02-18T07:02:49;99889.72;;;9.19;100.00
24858;BME280;12935;50.782;6.074;2023-02-18T07:05:14;99888.03;;;9.07;100.00
24858;BME280;12935;50.782;6.074;2023-02-18T07:07:40;99907.97;;;9.14;100.00
24858;BME280;12935;50.782;6.074;2023-02-18T07:10:06;99907.69;;;9.23;100.00
24858;BME280;12935;50.782;6.074;2023-02-18T07:12:32;99908.78;;;9.19;100.00
24858;BME280;12935;50.782;6.074;2023-02-18T07:14:57;99919.28;;;9.17;100.00
24858;BME280;12935;50.782;6.074;2023-02-18T07:17:22;99925.88;;;9.12;100.00
24858;BME280;12935;50.782;6.074;2023-02-18T07:19:48;99939.09;;;9.10;100.00
24858;BME280;12935;50.782;6.074;2023-02-18T07:22:13;99951.56;;;9.11;100.00
24858;BME280;12935;50.782;6.074;2023-02-18T07:24:38;99956.25;;;9.14;100.00
24858;BME280;12935;50.782;6.074;2023-02-18T07:27:03;99952.72;;;9.10;100.00
24858;BME280;12935;50.782;6.074;2023-02-18T07:29:29;99966.31;;;9.06;100.00
24858;BME280;12935;50.782;6.074;2023-02-18T07:31:54;99954.66;;;9.09;100.00
24858;BME280;12935;50.782;6.074;2023-02-18T07:34:20;99968.63;;;9.04;100.00
24858;BME280;12935;50.782;6.074;2023-02-18T07:36:45;99957.72;;;9.04;100.00
24858;BME280;12935;50.782;6.074;2023-02-18T07:39:10;99968.66;;;9.08;100.00
24858;BME280;12935;50.782;6.074;2023-02-18T07:41:36;99979.63;;;9.11;100.00
24858;BME280;12935;50.782;6.074;2023-02-18T07:44:01;99974.94;;;9.12;100.00
24858;BME280;12935;50.782;6.074;2023-02-18T07:46:26;99961.31;;;9.12;100.00
24858;BME280;12935;50.782;6.074;2023-02-18T07:48:52;99967.22;;;9.18;100.00
24858;BME280;12935;50.782;6.074;2023-02-18T07:51:17;99964.84;;;9.16;100.00
24858;BME280;12935;50.782;6.074;2023-02-18T07:53:43;99972.34;;;9.23;100.00
24858;BME280;12935;50.782;6.074;2023-02-18T07:56:08;99961.75;;;9.18;100.00
24858;BME280;12935;50.782;6.074;2023-02-18T07:58:36;99987.06;;;9.18;100.00
24858;BME280;12935;50.782;6.074;2023-02-18T08:01:10;99983.50;;;9.10;100.00
24858;BME280;12935;50.782;6.074;2023-02-18T08:03:36;99984.34;;;9.18;100.00
24858;BME280;12935;50.782;6.074;2023-02-18T08:06:03;99985.88;;;9.15;100.00
24858;BME280;12935;50.782;6.074;2023-02-18T08:08:30;99984.31;;;9.14;100.00
24858;BME280;12935;50.782;6.074;2023-02-18T08:10:58;100000.63;;;9.11;100.00
24858;BME280;12935;50.782;6.074;2023-02-18T08:13:27;99999.06;;;9.10;100.00
24858;BME280;12935;50.782;6.074;2023-02-18T08:15:54;99997.06;;;9.07;100.00
24858;BME280;12935;50.782;6.074;2023-02-18T08:18:21;99999.91;;;9.18;100.00
24858;BME280;12935;50.782;6.074;2023-02-18T08:20:48;99988.59;;;9.15;100.00
24858;BME280;12935;50.782;6.074;2023-02-18T08:23:15;100002.28;;;9.19;100.00
24858;BME280;12935;50.782;6.074;2023-02-18T08:25:45;99988.28;;;9.21;100.00
24858;BME280;12935;50.782;6.074;2023-02-18T08:28:10;99990.22;;;9.20;100.00
24858;BME280;12935;50.782;6.074;2023-02-18T08:30:35;99998.78;;;9.19;100.00
24858;BME280;12935;50.782;6.074;2023-02-18T08:33:01;100002.13;;;9.38;100.00
24858;BME280;12935;50.782;6.074;2023-02-18T08:35:26;100002.69;;;9.21;100.00
24858;BME280;12935;50.782;6.074;2023-02-18T08:37:51;100000.09;;;9.32;100.00
24858;BME280;12935;50.782;6.074;2023-02-18T08:40:17;100012.06;;;9.24;100.00
24858;BME280;12935;50.782;6.074;2023-02-18T08:42:42;99998.81;;;9.22;100.00
24858;BME280;12935;50.782;6.074;2023-02-18T08:45:07;100007.72;;;9.19;100.00
24858;BME280;12935;50.782;6.074;2023-02-18T08:47:33;100003.47;;;9.22;100.00
24858;BME280;12935;50.782;6.074;2023-02-18T08:49:58;100009.25;;;9.17;100.00
24858;BME280;12935;50.782;6.074;2023-02-18T08:52:24;100019.78;;;9.18;100.00
24858;BME280;12935;50.782;6.074;2023-02-18T08:54:49;100005.06;;;9.23;100.00
24858;BME280;12935;50.782;6.074;2023-02-18T08:57:14;100007.06;;;9.29;100.00
24858;BME280;12935;50.782;6.074;2023-02-18T08:59:40;100012.50;;;9.29;100.00
24858;BME280;12935;50.782;6.074;2023-02-18T09:02:05;100012.88;;;9.24;100.00
24858;BME280;12935;50.782;6.074;2023-02-18T09:04:31;99994.97;;;9.27;100.00
24858;BME280;12935;50.782;6.074;2023-02-18T09:06:57;99995.03;;;9.34;100.00
24858;BME280;12935;50.782;6.074;2023-02-18T09:09:22;100013.06;;;9.42;100.00
24858;BME280;12935;50.782;6.074;2023-02-18T09:11:48;100006.88;;;9.48;100.00
24858;BME280;12935;50.782;6.074;2023-02-18T09:14:13;100003.75;;;9.46;100.00
24858;BME280;12935;50.782;6.074;2023-02-18T09:16:39;99999.16;;;9.54;100.00
24858;BME280;12935;50.782;6.074;2023-02-18T09:19:05;100010.88;;;9.55;100.00
24858;BME280;12935;50.782;6.074;2023-02-18T09:21:31;100020.34;;;9.68;100.00
24858;BME280;12935;50.782;6.074;2023-02-18T09:23:57;100000.47;;;9.67;100.00
24858;BME280;12935;50.782;6.074;2023-02-18T09:26:22;100006.56;;;9.54;100.00
24858;BME280;12935;50.782;6.074;2023-02-18T09:28:50;100005.88;;;9.64;100.00
24858;BME280;12935;50.782;6.074;2023-02-18T09:31:19;100008.25;;;9.65;100.00
24858;BME280;12935;50.782;6.074;2023-02-18T09:34:02;99999.63;;;9.60;100.00
24858;BME280;12935;50.782;6.074;2023-02-18T09:36:28;100001.44;;;9.48;100.00
24858;BME280;12935;50.782;6.074;2023-02-18T09:38:54;100004.66;;;9.58;100.00
24858;BME280;12935;50.782;6.074;2023-02-18T09:41:42;99997.56;;;9.49;100.00
24858;BME280;12935;50.782;6.074;2023-02-18T09:44:13;99991.81;;;9.58;100.00
24858;BME280;12935;50.782;6.074;2023-02-18T09:46:47;99995.28;;;9.55;100.00
24858;BME280;12935;50.782;6.074;2023-02-18T09:49:38;99991.03;;;9.58;100.00
24858;BME280;12935;50.782;6.074;2023-02-18T09:52:15;99978.63;;;9.67;100.00
24858;BME280;12935;50.782;6.074;2023-02-18T09:54:41;99987.16;;;9.62;100.00
24858;BME280;12935;50.782;6.074;2023-02-18T09:57:20;99974.66;;;9.58;100.00
24858;BME280;12935;50.782;6.074;2023-02-18T09:59:50;99969.91;;;9.51;100.00
24858;BME280;12935;50.782;6.074;2023-02-18T10:02:18;99980.91;;;9.58;100.00
24858;BME280;12935;50.782;6.074;2023-02-18T10:04:45;99973.50;;;9.59;100.00
24858;BME280;12935;50.782;6.074;2023-02-18T10:07:25;99963.38;;;9.59;100.00
24858;BME280;12935;50.782;6.074;2023-02-18T10:09:53;99960.19;;;9.54;100.00
24858;BME280;12935;50.782;6.074;2023-02-18T10:12:21;99978.13;;;9.55;100.00
24858;BME280;12935;50.782;6.074;2023-02-18T10:14:58;99973.50;;;9.59;100.00
24858;BME280;12935;50.782;6.074;2023-02-18T10:17:27;99981.19;;;9.49;100.00
24858;BME280;12935;50.782;6.074;2023-02-18T10:19:55;99977.19;;;9.40;100.00
24858;BME280;12935;50.782;6.074;2023-02-18T10:22:23;99968.50;;;9.27;100.00
24858;BME280;12935;50.782;6.074;2023-02-18T10:24:52;99967.78;;;9.34;100.00
24858;BME280;12935;50.782;6.074;2023-02-18T10:27:23;99970.13;;;9.35;100.00
24858;BME280;12935;50.782;6.074;2023-02-18T10:29:49;99969.88;;;9.14;100.00
24858;BME280;12935;50.782;6.074;2023-02-18T10:32:23;99972.91;;;9.05;100.00
24858;BME280;12935;50.782;6.074;2023-02-18T10:35:24;99966.31;;;9.06;100.00
24858;BME280;12935;50.782;6.074;2023-02-18T10:40:58;99960.56;;;9.15;100.00
24858;BME280;12935;50.782;6.074;2023-02-18T10:43:39;99977.47;;;9.28;100.00
24858;BME280;12935;50.782;6.074;2023-02-18T10:46:31;99980.34;;;9.08;100.00
24858;BME280;12935;50.782;6.074;2023-02-18T10:51:44;99976.25;;;8.92;100.00
24858;BME280;12935;50.782;6.074;2023-02-18T10:54:13;99978.19;;;8.91;100.00
24858;BME280;12935;50.782;6.074;2023-02-18T10:56:47;99970.75;;;8.88;100.00
24858;BME280;12935;50.782;6.074;2023-02-18T11:01:42;99977.81;;;8.93;100.00
24858;BME280;12935;50.782;6.074;2023-02-18T11:04:14;99981.34;;;8.93;100.00
24858;BME280;12935;50.782;6.074;2023-02-18T11:06:43;99979.66;;;8.85;100.00
24858;BME280;12935;50.782;6.074;2023-02-18T11:09:26;99978.50;;;8.86;100.00
24858;BME280;12935;50.782;6.074;2023-02-18T11:12:00;99982.03;;;8.87;100.00
24858;BME280;12935;50.782;6.074;2023-02-18T11:15:07;99976.16;;;8.85;100.00
24858;BME280;12935;50.782;6.074;2023-02-18T11:17:41;99992.06;;;8.79;100.00
24858;BME280;12935;50.782;6.074;2023-02-18T11:22:44;99985.91;;;8.86;100.00
24858;BME280;12935;50.782;6.074;2023-02-18T11:25:21;99985.91;;;8.86;100.00
24858;BME280;12935;50.782;6.074;2023-02-18T11:27:50;99993.41;;;8.92;100.00
24858;BME280;12935;50.782;6.074;2023-02-18T11:32:42;99966.78;;;8.82;100.00
24858;BME280;12935;50.782;6.074;2023-02-18T11:35:16;99984.44;;;8.92;100.00
24858;BME280;12935;50.782;6.074;2023-02-18T11:37:42;99981.66;;;8.88;100.00
24858;BME280;12935;50.782;6.074;2023-02-18T11:40:19;99981.19;;;8.83;100.00
24858;BME280;12935;50.782;6.074;2023-02-18T11:42:45;99970.84;;;8.95;100.00
24858;BME280;12935;50.782;6.074;2023-02-18T11:45:29;99981.03;;;9.02;100.00
24858;BME280;12935;50.782;6.074;2023-02-18T11:48:07;99967.78;;;9.00;100.00
24858;BME280;12935;50.782;6.074;2023-02-18T11:50:33;99965.63;;;9.17;100.00
24858;BME280;12935;50.782;6.074;2023-02-18T11:52:59;99960.47;;;9.08;100.00
24858;BME280;12935;50.782;6.074;2023-02-18T11:55:26;99984.81;;;9.24;100.00
24858;BME280;12935;50.782;6.074;2023-02-18T11:57:58;99980.78;;;9.10;100.00
24858;BME280;12935;50.782;6.074;2023-02-18T12:00:42;99966.78;;;9.15;100.00
24858;BME280;12935;50.782;6.074;2023-02-18T12:05:39;99949.53;;;9.04;100.00
24858;BME280;12935;50.782;6.074;2023-02-18T12:10:37;99960.06;;;9.06;100.00
24858;BME280;12935;50.782;6.074;2023-02-18T12:15:46;99965.44;;;8.99;100.00
24858;BME280;12935;50.782;6.074;2023-02-18T12:18:42;99970.09;;;8.98;100.00
24858;BME280;12935;50.782;6.074;2023-02-18T12:21:18;99956.09;;;9.00;100.00
24858;BME280;12935;50.782;6.074;2023-02-18T12:24:14;99951.53;;;9.07;100.00
24858;BME280;12935;50.782;6.074;2023-02-18T12:27:11;99961.38;;;9.19;100.00
24858;BME280;12935;50.782;6.074;2023-02-18T12:29:54;99967.13;;;9.10;100.00
24858;BME280;12935;50.782;6.074;2023-02-18T12:32:41;99963.16;;;9.04;100.00
24858;BME280;12935;50.782;6.074;2023-02-18T12:35:45;99971.75;;;9.06;100.00
24858;BME280;12935;50.782;6.074;2023-02-18T12:41:37;99965.47;;;9.02;100.00
24858;BME280;12935;50.782;6.074;2023-02-18T12:47:11;99965.06;;;9.00;100.00
24858;BME280;12935;50.782;6.074;2023-02-18T12:52:34;99965.94;;;9.08;100.00
24858;BME280;12935;50.782;6.074;2023-02-18T12:55:28;99970.13;;;9.02;100.00
24858;BME280;12935;50.782;6.074;2023-02-18T12:58:07;99971.72;;;9.03;100.00
24858;BME280;12935;50.782;6.074;2023-02-18T13:01:25;99965.97;;;9.11;100.00
24858;BME280;12935;50.782;6.074;2023-02-18T13:09:44;99973.50;;;9.22;100.00
24858;BME280;12935;50.782;6.074;2023-02-18T13:12:17;99966.56;;;9.28;100.00
24858;BME280;12935;50.782;6.074;2023-02-18T13:14:50;99972.38;;;9.26;100.00
24858;BME280;12935;50.782;6.074;2023-02-18T13:17:22;99972.41;;;9.30;100.00
24858;BME280;12935;50.782;6.074;2023-02-18T13:19:53;99962.81;;;9.43;100.00
24858;BME280;12935;50.782;6.074;2023-02-18T13:22:22;99972.44;;;9.33;100.00
24858;BME280;12935;50.782;6.074;2023-02-18T13:24:49;99972.41;;;9.30;100.00
24858;BME280;12935;50.782;6.074;2023-02-18T13:27:20;99967.72;;;9.27;100.00
24858;BME280;12935;50.782;6.074;2023-02-18T13:33:49;99973.13;;;9.23;100.00
24858;BME280;12935;50.782;6.074;2023-02-18T13:39:03;99976.28;;;9.29;100.00
24858;BME280;12935;50.782;6.074;2023-02-18T13:41:34;99966.63;;;9.35;100.00
24858;BME280;12935;50.782;6.074;2023-02-18T13:44:06;99965.41;;;9.32;100.00
24858;BME280;12935;50.782;6.074;2023-02-18T13:46:47;99974.34;;;9.29;100.00
24858;BME280;12935;50.782;6.074;2023-02-18T13:49:17;99958.75;;;9.26;100.00
24858;BME280;12935;50.782;6.074;2023-02-18T13:51:47;99963.75;;;9.21;100.00
24858;BME280;12935;50.782;6.074;2023-02-18T13:56:59;99957.97;;;9.29;100.00
24858;BME280;12935;50.782;6.074;2023-02-18T13:59:35;99956.22;;;9.44;100.00
24858;BME280;12935;50.782;6.074;2023-02-18T14:02:34;99948.78;;;9.41;100.00
24858;BME280;12935;50.782;6.074;2023-02-18T14:25:56;99951.50;;;9.41;100.00
24858;BME280;12935;50.782;6.074;2023-02-18T14:31:05;99949.47;;;9.34;100.00
24858;BME280;12935;50.782;6.074;2023-02-18T14:33:53;99955.28;;;9.33;100.00
24858;BME280;12935;50.782;6.074;2023-02-18T14:41:45;99949.19;;;9.46;100.00
24858;BME280;12935;50.782;6.074;2023-02-18T14:49:21;99957.88;;;9.56;100.00
24858;BME280;12935;50.782;6.074;2023-02-18T14:51:51;99952.00;;;9.54;100.00